createdAt,value
2022-07-29T00:01:44.339Z,2.35
2022-07-29T00:04:13.991Z,2.33
2022-07-29T00:09:10.737Z,2.15
2022-07-29T00:11:38.603Z,2.72
2022-07-29T00:14:06.403Z,2.28
2022-07-29T00:16:34.785Z,2.20
2022-07-29T00:19:03.119Z,2.40
2022-07-29T00:21:31.159Z,2.55
2022-07-29T00:23:59.248Z,2.35
2022-07-29T00:26:28.947Z,2.15
2022-07-29T00:29:17.408Z,2.90
2022-07-29T00:31:44.894Z,2.40
2022-07-29T00:34:31.627Z,2.83
2022-07-29T00:36:59.631Z,2.20
2022-07-29T00:39:27.560Z,2.30
2022-07-29T00:41:55.866Z,3.10
2022-07-29T00:44:23.908Z,2.90
2022-07-29T00:46:51.789Z,2.53
2022-07-29T00:49:19.797Z,2.58
2022-07-29T00:51:49.624Z,2.45
2022-07-29T00:54:17.635Z,2.45
2022-07-29T00:56:45.812Z,2.50
2022-07-29T00:59:13.672Z,2.45
2022-07-29T01:01:41.415Z,2.63
2022-07-29T01:04:09.470Z,2.35
2022-07-29T01:06:38.379Z,2.60
2022-07-29T01:09:07.759Z,2.75
2022-07-29T01:11:37.266Z,3.25
2022-07-29T01:14:09.644Z,3.00
2022-07-29T01:17:11.359Z,3.00
2022-07-29T01:20:21.223Z,2.92
2022-07-29T01:23:10.047Z,3.03
2022-07-29T01:25:53.096Z,2.30
2022-07-29T01:28:54.455Z,2.45
2022-07-29T01:31:59.065Z,2.38
2022-07-29T01:34:55.272Z,2.33
2022-07-29T01:38:00.655Z,2.35
2022-07-29T01:41:22.744Z,2.90
2022-07-29T01:44:19.432Z,2.42
2022-07-29T01:46:59.352Z,2.80
2022-07-29T01:49:32.916Z,2.92
2022-07-29T01:52:08.723Z,3.00
2022-07-29T01:54:56.980Z,2.63
2022-07-29T01:57:32.974Z,2.55
2022-07-29T02:00:02.887Z,3.22
2022-07-29T02:02:44.745Z,2.80
2022-07-29T02:05:18.621Z,2.80
2022-07-29T02:07:51.494Z,2.83
2022-07-29T02:10:27.748Z,2.83
2022-07-29T02:12:59.187Z,2.25
2022-07-29T02:15:31.971Z,2.47
2022-07-29T02:18:10.689Z,2.90
2022-07-29T02:20:43.415Z,3.13
2022-07-29T02:23:14.046Z,2.88
2022-07-29T02:25:44.563Z,2.50
2022-07-29T02:28:16.361Z,2.50
2022-07-29T02:30:47.310Z,2.70
2022-07-29T02:33:19.503Z,2.63
2022-07-29T02:35:49.783Z,2.90
2022-07-29T02:38:38.383Z,2.58
2022-07-29T02:41:15.000Z,2.70
2022-07-29T02:43:48.546Z,2.75
2022-07-29T02:46:32.378Z,2.72
2022-07-29T02:49:27.814Z,3.15
2022-07-29T02:52:03.889Z,2.70
2022-07-29T02:54:42.273Z,3.03
2022-07-29T02:57:22.896Z,2.50
2022-07-29T02:59:58.487Z,2.45
2022-07-29T03:02:28.956Z,2.58
2022-07-29T03:05:02.052Z,2.58
2022-07-29T03:07:31.874Z,2.58
2022-07-29T03:10:01.301Z,2.47
2022-07-29T03:12:31.717Z,2.35
2022-07-29T03:15:03.001Z,2.55
2022-07-29T03:17:32.758Z,2.20
2022-07-29T03:20:02.659Z,1.98
2022-07-29T03:22:31.310Z,2.38
2022-07-29T03:24:58.960Z,2.15
2022-07-29T03:27:26.935Z,2.17
2022-07-29T03:29:54.647Z,1.88
2022-07-29T03:32:25.145Z,2.38
2022-07-29T03:34:53.970Z,2.08
2022-07-29T03:37:21.927Z,2.42
2022-07-29T03:39:53.040Z,2.20
2022-07-29T03:42:31.091Z,2.53
2022-07-29T03:45:08.578Z,2.67
2022-07-29T03:47:49.576Z,2.15
2022-07-29T03:50:21.468Z,2.35
2022-07-29T03:52:50.695Z,2.53
2022-07-29T03:55:19.486Z,2.53
2022-07-29T03:57:49.396Z,3.35
2022-07-29T04:00:17.903Z,3.35
2022-07-29T04:02:49.427Z,2.88
2022-07-29T04:05:19.152Z,2.72
2022-07-29T04:07:48.845Z,3.10
2022-07-29T04:10:25.334Z,3.03
2022-07-29T04:13:01.265Z,2.75
2022-07-29T04:15:31.009Z,2.60
2022-07-29T04:18:00.450Z,3.03
2022-07-29T04:20:28.576Z,2.50
2022-07-29T04:22:56.617Z,3.53
2022-07-29T04:25:24.544Z,2.50
2022-07-29T04:28:01.279Z,2.97
2022-07-29T04:30:30.999Z,2.42
2022-07-29T04:32:59.493Z,2.95
2022-07-29T04:35:27.850Z,2.85
2022-07-29T04:37:55.730Z,3.60
2022-07-29T04:40:24.458Z,3.00
2022-07-29T04:42:52.297Z,3.45
2022-07-29T04:45:22.814Z,2.65
2022-07-29T04:47:51.643Z,3.05
2022-07-29T04:50:19.478Z,2.75
2022-07-29T04:52:47.472Z,2.22
2022-07-29T04:55:15.995Z,2.63
2022-07-29T04:57:43.912Z,1.90
2022-07-29T05:00:12.796Z,2.58
2022-07-29T05:02:41.068Z,2.63
2022-07-29T05:05:09.930Z,2.45
2022-07-29T05:07:37.548Z,1.83
2022-07-29T05:10:06.361Z,1.52
2022-07-29T05:12:34.588Z,1.38
2022-07-29T05:15:02.581Z,1.95
2022-07-29T05:17:30.630Z,2.47
2022-07-29T05:19:58.447Z,1.75
2022-07-29T05:22:26.223Z,1.80
2022-07-29T05:24:54.404Z,1.90
2022-07-29T05:27:22.050Z,1.70
2022-07-29T05:29:49.895Z,1.52
2022-07-29T05:32:18.029Z,2.10
2022-07-29T05:34:50.876Z,1.27
2022-07-29T05:37:22.830Z,3.35
2022-07-29T05:39:56.867Z,1.00
2022-07-29T05:42:29.034Z,1.08
2022-07-29T05:44:57.422Z,1.15
2022-07-29T05:47:25.860Z,2.25
2022-07-29T05:49:55.096Z,0.93
2022-07-29T05:52:23.264Z,1.00
2022-07-29T05:54:51.236Z,1.02
2022-07-29T05:57:25.354Z,1.30
2022-07-29T05:59:53.345Z,1.35
2022-07-29T06:02:21.947Z,1.30
2022-07-29T06:04:50.506Z,1.70
2022-07-29T06:07:18.444Z,0.80
2022-07-29T06:09:46.515Z,0.80
2022-07-29T06:12:14.250Z,0.40
2022-07-29T06:14:41.920Z,0.50
2022-07-29T06:17:09.967Z,0.55
2022-07-29T06:19:37.883Z,0.80
2022-07-29T06:22:05.720Z,0.88
2022-07-29T06:24:33.755Z,0.60
2022-07-29T06:27:01.418Z,0.50
2022-07-29T06:29:29.425Z,0.60
2022-07-29T06:31:57.559Z,0.35
2022-07-29T06:34:25.402Z,0.47
2022-07-29T06:36:54.235Z,0.50
2022-07-29T06:39:22.706Z,0.40
2022-07-29T06:41:51.657Z,0.32
2022-07-29T06:44:20.336Z,0.70
2022-07-29T06:46:51.133Z,0.45
2022-07-29T06:49:19.036Z,0.70
2022-07-29T06:51:47.609Z,0.40
2022-07-29T06:54:15.836Z,0.40
2022-07-29T06:56:44.394Z,0.52
2022-07-29T06:59:13.724Z,0.50
2022-07-29T07:04:13.533Z,0.50
2022-07-29T07:06:41.883Z,0.40
2022-07-29T07:09:09.750Z,0.40
2022-07-29T07:11:37.520Z,0.40
2022-07-29T07:14:05.310Z,0.30
2022-07-29T07:16:33.638Z,0.52
2022-07-29T07:19:02.112Z,0.52
2022-07-29T07:21:31.248Z,0.45
2022-07-29T07:24:00.868Z,7.43
2022-07-29T07:26:29.390Z,0.50
2022-07-29T07:28:57.216Z,0.45
2022-07-29T07:31:25.444Z,0.40
2022-07-29T07:33:54.735Z,5.60
2022-07-29T07:36:23.295Z,0.45
2022-07-29T07:38:51.458Z,0.47
2022-07-29T07:41:19.415Z,0.60
2022-07-29T07:43:47.227Z,0.65
2022-07-29T07:46:16.218Z,0.47
2022-07-29T07:48:44.446Z,0.40
2022-07-29T07:51:12.875Z,0.60
2022-07-29T07:53:40.998Z,0.30
2022-07-29T07:56:11.769Z,0.40
2022-07-29T07:58:40.576Z,0.20
2022-07-29T08:01:09.702Z,0.20
2022-07-29T08:03:37.912Z,0.30
2022-07-29T08:06:06.248Z,0.57
2022-07-29T08:08:34.894Z,0.20
2022-07-29T08:11:09.189Z,0.20
2022-07-29T08:13:39.547Z,0.25
2022-07-29T08:16:16.623Z,0.30
2022-07-29T08:18:47.121Z,0.25
2022-07-29T08:21:16.755Z,0.22
2022-07-29T08:26:27.974Z,0.35
2022-07-29T08:28:55.887Z,0.57
2022-07-29T08:31:23.957Z,0.30
2022-07-29T08:33:52.303Z,0.30
2022-07-29T08:36:22.149Z,0.30
2022-07-29T08:38:50.725Z,0.35
2022-07-29T08:41:21.641Z,0.38
2022-07-29T08:43:52.186Z,0.40
2022-07-29T08:46:22.497Z,0.40
2022-07-29T08:48:51.190Z,0.30
2022-07-29T08:51:22.389Z,0.35
2022-07-29T08:53:52.507Z,0.20
2022-07-29T08:56:22.126Z,0.20
2022-07-29T08:58:52.388Z,0.40
2022-07-29T09:01:35.605Z,0.32
2022-07-29T09:04:11.568Z,0.28
2022-07-29T09:06:47.589Z,0.28
2022-07-29T09:09:16.448Z,0.30
2022-07-29T09:11:45.389Z,0.30
2022-07-29T09:14:15.135Z,0.25
2022-07-29T09:17:02.610Z,0.40
2022-07-29T09:19:37.982Z,1.43
2022-07-29T09:22:10.451Z,0.40
2022-07-29T09:24:43.127Z,0.20
2022-07-29T09:27:21.082Z,0.28
2022-07-29T09:30:11.982Z,0.43
2022-07-29T09:33:04.806Z,0.38
2022-07-29T09:35:33.440Z,0.30
2022-07-29T09:38:15.293Z,0.10
2022-07-29T09:40:59.936Z,0.30
2022-07-29T09:43:34.212Z,0.43
2022-07-29T09:46:15.905Z,0.25
2022-07-29T09:49:06.568Z,0.40
2022-07-29T09:51:39.010Z,0.20
2022-07-29T09:54:27.454Z,0.38
2022-07-29T09:56:56.887Z,1.70
2022-07-29T09:59:27.742Z,0.30
2022-07-29T10:01:57.529Z,0.30
2022-07-29T10:04:42.418Z,2.90
2022-07-29T10:07:11.044Z,0.50
2022-07-29T10:09:38.754Z,0.32
2022-07-29T10:12:17.774Z,0.15
2022-07-29T10:14:48.709Z,0.30
2022-07-29T10:17:19.432Z,0.55
2022-07-29T10:19:50.402Z,0.80
2022-07-29T10:22:43.579Z,0.40
2022-07-29T10:25:10.639Z,0.60
2022-07-29T10:27:40.844Z,0.30
2022-07-29T10:30:11.071Z,0.30
2022-07-29T10:32:58.017Z,0.30
2022-07-29T10:35:58.207Z,0.35
2022-07-29T10:38:39.144Z,0.28
2022-07-29T10:41:52.326Z,0.20
2022-07-29T10:44:24.976Z,0.20
2022-07-29T10:46:55.915Z,0.40
2022-07-29T10:49:31.435Z,0.20
2022-07-29T10:52:11.687Z,0.22
2022-07-29T10:54:52.681Z,0.20
2022-07-29T10:57:52.581Z,0.38
2022-07-29T11:00:17.353Z,0.82
2022-07-29T11:02:52.377Z,0.65
2022-07-29T11:05:22.326Z,0.40
2022-07-29T11:08:20.224Z,0.88
2022-07-29T11:10:51.234Z,0.38
2022-07-29T11:13:52.231Z,0.50
2022-07-29T11:16:25.151Z,0.90
2022-07-29T11:19:13.332Z,0.40
2022-07-29T11:21:55.204Z,2.60
2022-07-29T11:24:35.850Z,0.30
2022-07-29T11:27:21.263Z,0.82
2022-07-29T11:29:53.478Z,0.40
2022-07-29T11:32:25.129Z,0.50
2022-07-29T11:35:37.411Z,0.30
2022-07-29T11:38:28.654Z,0.70
2022-07-29T11:43:58.426Z,0.38
2022-07-29T11:46:51.517Z,0.30
2022-07-29T11:49:32.158Z,1.00
2022-07-29T11:52:05.586Z,0.40
2022-07-29T11:54:57.445Z,0.40
2022-07-29T11:57:36.000Z,0.35
2022-07-29T12:00:12.512Z,1.65
2022-07-29T12:02:48.581Z,0.30
2022-07-29T12:05:36.715Z,0.50
2022-07-29T12:08:22.789Z,0.68
2022-07-29T12:10:52.470Z,2.17
2022-07-29T12:13:22.948Z,0.70
2022-07-29T12:16:06.783Z,0.28
2022-07-29T12:21:05.084Z,1.35
2022-07-29T12:23:36.300Z,0.50
2022-07-29T12:26:10.674Z,1.52
2022-07-29T12:28:41.936Z,0.88
2022-07-29T12:31:43.684Z,0.30
2022-07-29T12:34:05.303Z,0.52
2022-07-29T12:36:34.079Z,0.40
2022-07-29T12:39:02.262Z,0.50
2022-07-29T12:41:31.165Z,0.70
2022-07-29T12:43:59.241Z,0.40
2022-07-29T12:46:27.839Z,0.50
2022-07-29T12:48:58.438Z,0.55
2022-07-29T12:51:34.569Z,0.30
2022-07-29T12:54:12.640Z,0.95
2022-07-29T12:56:43.509Z,0.20
2022-07-29T12:59:19.413Z,0.30
2022-07-29T13:01:50.498Z,0.30
2022-07-29T13:04:33.531Z,0.28
2022-07-29T13:07:07.564Z,0.40
2022-07-29T13:09:49.630Z,0.40
2022-07-29T13:12:17.426Z,0.30
2022-07-29T13:14:51.368Z,0.63
2022-07-29T13:17:28.393Z,0.10
2022-07-29T13:20:10.332Z,0.30
2022-07-29T13:22:38.183Z,0.13
2022-07-29T13:25:08.003Z,0.40
2022-07-29T13:27:39.313Z,0.30
2022-07-29T13:30:10.181Z,0.50
2022-07-29T13:32:38.790Z,0.30
2022-07-29T13:35:09.448Z,0.40
2022-07-29T13:37:41.269Z,0.90
2022-07-29T13:40:11.854Z,0.30
2022-07-29T13:42:42.633Z,0.40
2022-07-29T13:45:11.972Z,0.35
2022-07-29T13:47:42.534Z,0.25
2022-07-29T13:50:13.004Z,0.25
2022-07-29T13:52:41.115Z,0.38
2022-07-29T13:55:09.864Z,0.30
2022-07-29T13:57:37.963Z,0.30
2022-07-29T14:00:06.986Z,0.35
2022-07-29T14:02:36.332Z,0.30
2022-07-29T14:05:08.558Z,0.45
2022-07-29T14:07:42.084Z,0.38
2022-07-29T14:10:10.978Z,0.28
2022-07-29T14:12:39.586Z,0.30
2022-07-29T14:15:08.206Z,0.47
2022-07-29T14:17:36.699Z,0.40
2022-07-29T14:20:06.364Z,0.40
2022-07-29T14:22:37.832Z,0.40
2022-07-29T14:25:14.389Z,0.40
2022-07-29T14:27:44.706Z,0.50
2022-07-29T14:30:13.870Z,0.50
2022-07-29T14:32:42.038Z,0.40
2022-07-29T14:35:10.273Z,0.40
2022-07-29T14:37:40.376Z,0.35
2022-07-29T14:40:11.594Z,0.77
2022-07-29T14:42:40.667Z,0.43
2022-07-29T14:45:10.727Z,0.35
2022-07-29T14:47:39.948Z,0.40
2022-07-29T14:50:09.263Z,0.20
2022-07-29T14:52:37.139Z,0.73
2022-07-29T14:55:19.788Z,0.40
2022-07-29T14:57:49.383Z,0.52
2022-07-29T15:00:18.785Z,0.40
2022-07-29T15:03:01.360Z,0.40
2022-07-29T15:05:32.374Z,0.55
2022-07-29T15:08:00.807Z,0.30
2022-07-29T15:10:29.106Z,0.30
2022-07-29T15:12:58.519Z,0.20
2022-07-29T15:15:27.194Z,0.30
2022-07-29T15:17:55.299Z,0.37
2022-07-29T15:20:26.432Z,0.30
2022-07-29T15:22:56.632Z,0.30
2022-07-29T15:25:28.263Z,0.20
2022-07-29T15:28:01.147Z,0.50
2022-07-29T15:30:33.303Z,0.40
2022-07-29T15:33:05.202Z,0.50
2022-07-29T15:35:40.610Z,0.30
2022-07-29T15:38:09.545Z,0.30
2022-07-29T15:40:42.339Z,0.30
2022-07-29T15:43:10.475Z,0.20
2022-07-29T15:46:07.269Z,0.30
2022-07-29T15:48:40.500Z,0.50
2022-07-29T15:51:08.694Z,0.40
2022-07-29T15:53:37.249Z,0.60
2022-07-29T15:56:05.840Z,0.60
2022-07-29T15:58:36.475Z,0.50
2022-07-29T16:01:07.325Z,0.60
2022-07-29T16:03:40.970Z,0.90
2022-07-29T16:06:11.121Z,0.40
2022-07-29T16:08:39.343Z,0.30
2022-07-29T16:11:07.476Z,0.20
2022-07-29T16:13:36.239Z,0.47
2022-07-29T16:16:05.057Z,0.60
2022-07-29T16:18:34.311Z,0.55
2022-07-29T16:21:02.447Z,0.40
2022-07-29T16:23:30.659Z,0.35
2022-07-29T16:26:00.581Z,0.85
2022-07-29T16:28:31.020Z,0.40
2022-07-29T16:30:59.258Z,0.40
2022-07-29T16:33:27.400Z,0.43
2022-07-29T16:35:55.712Z,0.40
2022-07-29T16:38:24.124Z,0.40
2022-07-29T16:40:52.087Z,0.30
2022-07-29T16:43:20.484Z,0.20
2022-07-29T16:45:49.202Z,0.25
2022-07-29T16:48:18.008Z,0.30
2022-07-29T16:50:46.816Z,0.40
2022-07-29T16:53:15.007Z,0.35
2022-07-29T16:55:43.168Z,0.38
2022-07-29T16:58:12.138Z,0.43
2022-07-29T17:00:41.468Z,0.45
2022-07-29T17:03:09.621Z,0.50
2022-07-29T17:05:52.599Z,0.40
2022-07-29T17:08:23.137Z,0.68
2022-07-29T17:10:54.106Z,0.25
2022-07-29T17:13:22.251Z,0.40
2022-07-29T17:15:50.720Z,0.50
2022-07-29T17:18:18.412Z,0.50
2022-07-29T17:20:46.029Z,0.60
2022-07-29T17:23:13.980Z,0.40
2022-07-29T17:25:41.744Z,0.40
2022-07-29T17:28:09.470Z,0.60
2022-07-29T17:30:37.448Z,1.10
2022-07-29T17:33:05.158Z,0.50
2022-07-29T17:35:51.770Z,0.40
2022-07-29T17:38:19.903Z,0.45
2022-07-29T17:40:47.827Z,0.55
2022-07-29T17:43:15.575Z,0.38
2022-07-29T17:45:49.502Z,0.50
2022-07-29T17:48:19.857Z,0.50
2022-07-29T17:50:49.473Z,0.52
2022-07-29T17:53:17.483Z,0.50
2022-07-29T17:55:46.439Z,0.40
2022-07-29T17:58:16.159Z,0.30
2022-07-29T18:00:44.681Z,0.50
2022-07-29T18:03:12.934Z,0.50
2022-07-29T18:05:41.836Z,0.50
2022-07-29T18:08:09.777Z,0.40
2022-07-29T18:10:37.724Z,0.47
2022-07-29T18:13:06.107Z,0.47
2022-07-29T18:15:35.086Z,0.45
2022-07-29T18:18:03.571Z,0.50
2022-07-29T18:20:32.167Z,0.50
2022-07-29T18:23:01.673Z,0.35
2022-07-29T18:25:30.231Z,0.60
2022-07-29T18:28:00.747Z,0.70
2022-07-29T18:30:31.283Z,0.40
2022-07-29T18:35:52.176Z,0.50
2022-07-29T18:38:22.117Z,0.93
2022-07-29T18:40:50.914Z,0.70
2022-07-29T18:43:19.440Z,1.13
2022-07-29T18:45:49.913Z,0.80
2022-07-29T18:48:19.007Z,0.90
2022-07-29T18:50:46.997Z,1.80
2022-07-29T18:53:15.680Z,1.13
2022-07-29T18:55:48.522Z,1.35
2022-07-29T18:58:17.293Z,1.45
2022-07-29T19:00:45.783Z,1.15
2022-07-29T19:03:14.896Z,1.02
2022-07-29T19:05:43.711Z,1.10
2022-07-29T19:08:12.023Z,1.20
2022-07-29T19:10:40.670Z,0.90
2022-07-29T19:13:10.287Z,1.70
2022-07-29T19:15:42.369Z,1.23
2022-07-29T19:18:10.604Z,1.17
2022-07-29T19:20:40.177Z,1.00
2022-07-29T19:25:53.201Z,1.38
2022-07-29T19:28:26.140Z,0.70
2022-07-29T19:30:54.698Z,0.88
2022-07-29T19:33:23.234Z,0.63
2022-07-29T19:35:54.938Z,0.55
2022-07-29T19:38:25.232Z,0.82
2022-07-29T19:40:54.481Z,1.90
2022-07-29T19:43:51.760Z,2.17
2022-07-29T19:46:13.241Z,1.73
2022-07-29T19:48:42.039Z,1.27
2022-07-29T19:51:10.949Z,1.50
2022-07-29T19:53:39.705Z,0.93
2022-07-29T19:56:08.854Z,0.68
2022-07-29T19:58:38.662Z,0.75
2022-07-29T20:01:10.744Z,1.20
2022-07-29T20:03:40.446Z,1.23
2022-07-29T20:06:08.994Z,1.42
2022-07-29T20:08:37.886Z,1.40
2022-07-29T20:11:07.338Z,1.83
2022-07-29T20:13:36.422Z,1.60
2022-07-29T20:16:06.696Z,1.90
2022-07-29T20:18:36.000Z,2.10
2022-07-29T20:21:05.218Z,2.28
2022-07-29T20:23:33.643Z,2.22
2022-07-29T20:26:05.084Z,2.28
2022-07-29T20:28:36.490Z,2.05
2022-07-29T20:31:06.041Z,2.10
2022-07-29T20:33:34.478Z,1.90
2022-07-29T20:36:03.147Z,2.30
2022-07-29T20:38:31.173Z,1.48
2022-07-29T20:40:59.097Z,1.65
2022-07-29T20:43:27.877Z,2.00
2022-07-29T20:45:56.140Z,1.60
2022-07-29T20:48:24.649Z,1.98
2022-07-29T20:50:55.073Z,1.63
2022-07-29T20:53:24.013Z,2.22
2022-07-29T20:55:52.472Z,2.10
2022-07-29T20:58:21.263Z,2.10
2022-07-29T21:00:51.938Z,1.98
2022-07-29T21:03:19.890Z,1.60
2022-07-29T21:05:48.488Z,1.90
2022-07-29T21:08:16.514Z,1.70
2022-07-29T21:10:44.971Z,1.73
2022-07-29T21:13:14.582Z,1.80
2022-07-29T21:15:46.103Z,1.70
2022-07-29T21:18:28.064Z,1.65
2022-07-29T21:20:58.254Z,1.95
2022-07-29T21:23:28.095Z,1.85
2022-07-29T21:25:57.296Z,1.55
2022-07-29T21:28:36.867Z,1.70
2022-07-29T21:31:12.462Z,1.95
2022-07-29T21:33:44.071Z,1.90
2022-07-29T21:36:47.921Z,2.03
2022-07-29T21:39:07.337Z,2.10
2022-07-29T21:41:35.958Z,2.15
2022-07-29T21:44:04.402Z,2.00
2022-07-29T21:46:36.856Z,1.98
2022-07-29T21:49:05.681Z,1.92
2022-07-29T21:51:34.032Z,2.00
2022-07-29T21:54:02.052Z,2.13
2022-07-29T21:56:31.445Z,1.75
2022-07-29T21:58:59.523Z,2.28
2022-07-29T22:01:27.429Z,1.90
2022-07-29T22:03:55.647Z,2.00
2022-07-29T22:06:23.668Z,1.83
2022-07-29T22:08:52.248Z,1.70
2022-07-29T22:11:20.638Z,1.60
2022-07-29T22:13:48.779Z,1.20
2022-07-29T22:16:17.199Z,1.58
2022-07-29T22:18:47.091Z,1.60
2022-07-29T22:21:18.068Z,1.98
2022-07-29T22:23:46.615Z,1.45
2022-07-29T22:26:14.471Z,1.30
2022-07-29T22:28:42.242Z,1.58
2022-07-29T22:31:10.236Z,1.55
2022-07-29T22:33:38.092Z,1.40
2022-07-29T22:36:06.361Z,1.48
2022-07-29T22:38:34.522Z,1.67
2022-07-29T22:41:03.443Z,1.63
2022-07-29T22:43:31.199Z,1.33
2022-07-29T22:45:59.042Z,1.42
2022-07-29T22:48:26.899Z,1.50
2022-07-29T22:50:54.742Z,1.00
2022-07-29T22:53:22.728Z,1.40
2022-07-29T22:55:50.654Z,1.40
2022-07-29T22:58:18.424Z,1.60
2022-07-29T23:00:46.302Z,1.35
2022-07-29T23:03:13.944Z,1.83
2022-07-29T23:05:41.861Z,1.30
2022-07-29T23:08:09.766Z,1.38
2022-07-29T23:10:37.499Z,1.38
2022-07-29T23:13:05.114Z,1.30
2022-07-29T23:15:33.154Z,2.35
2022-07-29T23:18:00.986Z,1.42
2022-07-29T23:20:28.783Z,1.35
2022-07-29T23:22:56.614Z,1.25
2022-07-29T23:25:24.525Z,1.20
2022-07-29T23:27:52.762Z,1.55
2022-07-29T23:30:20.787Z,1.38
2022-07-29T23:32:48.410Z,1.20
2022-07-29T23:35:16.214Z,1.38
2022-07-29T23:37:44.066Z,1.33
2022-07-29T23:40:14.539Z,1.00
2022-07-29T23:42:43.712Z,1.20
2022-07-29T23:45:13.665Z,1.30
2022-07-29T23:47:42.398Z,1.33
2022-07-29T23:50:16.878Z,1.38
2022-07-29T23:52:45.540Z,1.40
2022-07-29T23:55:36.664Z,1.58
2022-07-29T23:58:03.053Z,1.08
